Time;durP1;ratioP1;P1;durP2;ratioP2;P2;SDS_P1;SDS_P2;PMS_P1;PMS_P2;Temp;Humidity;BMP_temperature;BMP_pressure;BME280_temperature;BME280_humidity;BME280_pressure;Samples;Min_cycle;Max_cycle;Signal;HPM_P1;HPM_P2
2024/01/27 00:00:30;;;;;;;13.30;4.55;;;4.40;1.00;;;;;;4951792;28;20369;-84
2024/01/27 00:02:56;;;;;;;13.67;3.97;;;4.40;1.00;;;;;;4949918;28;21935;-84
2024/01/27 00:05:21;;;;;;;13.90;3.90;;;4.30;99.90;;;;;;4948384;28;20189;-84
2024/01/27 00:07:47;;;;;;;15.60;4.23;;;4.30;99.90;;;;;;4946188;28;20197;-83
2024/01/27 00:10:13;;;;;;;19.00;4.73;;;4.30;99.90;;;;;;4954324;28;20248;-84
2024/01/27 00:12:38;;;;;;;12.47;4.03;;;4.30;99.90;;;;;;4950394;28;20221;-85
2024/01/27 00:15:06;;;;;;;14.20;5.10;;;4.30;99.90;;;;;;4950903;28;20198;-85
2024/01/27 00:17:32;;;;;;;12.60;4.15;;;4.30;99.90;;;;;;4954852;28;20193;-85
2024/01/27 00:19:57;;;;;;;12.70;4.30;;;4.30;99.90;;;;;;4953037;28;20189;-85
2024/01/27 00:22:23;;;;;;;10.93;4.50;;;4.30;99.90;;;;;;4946580;28;20629;-87
2024/01/27 00:24:48;;;;;;;12.03;3.90;;;4.30;99.90;;;;;;4954713;28;20746;-85
2024/01/27 00:27:14;;;;;;;18.73;4.50;;;4.30;99.90;;;;;;4950856;28;20186;-85
2024/01/27 00:29:40;;;;;;;13.53;5.07;;;4.20;99.90;;;;;;4967842;28;20218;-86
2024/01/27 00:32:05;;;;;;;14.00;5.57;;;4.20;99.90;;;;;;4951299;29;20479;-86
2024/01/27 00:34:31;;;;;;;10.07;4.57;;;4.20;99.90;;;;;;4967477;28;20457;-85
2024/01/27 00:36:56;;;;;;;14.57;5.00;;;4.20;1.00;;;;;;4953384;28;20198;-85
2024/01/27 00:39:22;;;;;;;18.83;5.67;;;4.20;1.00;;;;;;4950925;28;20209;-84
2024/01/27 00:41:48;;;;;;;7.43;3.47;;;4.20;1.00;;;;;;4950902;29;20252;-86
2024/01/27 00:44:13;;;;;;;10.17;4.50;;;4.10;1.00;;;;;;4950532;28;20190;-85
2024/01/27 00:46:39;;;;;;;14.23;4.30;;;4.10;1.00;;;;;;4952860;29;20276;-83
2024/01/27 00:49:05;;;;;;;17.33;3.83;;;4.10;1.00;;;;;;4954886;28;20216;-85
2024/01/27 00:51:30;;;;;;;16.97;4.20;;;4.10;2.20;;;;;;4955350;28;20445;-86
2024/01/27 00:53:56;;;;;;;11.93;4.20;;;4.10;99.90;;;;;;4954180;28;20277;-84
2024/01/27 00:56:24;;;;;;;12.97;4.57;;;4.10;99.90;;;;;;4954447;28;20308;-85
2024/01/27 00:58:49;;;;;;;18.10;4.93;;;4.10;13.80;;;;;;4957500;29;20288;-85
2024/01/27 01:01:15;;;;;;;16.07;4.47;;;4.10;20.20;;;;;;4955678;28;20207;-84
2024/01/27 01:03:40;;;;;;;14.13;4.73;;;4.00;95.80;;;;;;4952299;28;20213;-82
2024/01/27 01:06:06;;;;;;;13.60;4.60;;;4.00;99.90;;;;;;4963382;28;20186;-84
2024/01/27 01:08:32;;;;;;;25.60;4.20;;;4.00;99.90;;;;;;4945253;28;20306;-84
2024/01/27 01:10:57;;;;;;;14.33;5.07;;;4.00;99.90;;;;;;4954466;28;20189;-84
2024/01/27 01:13:23;;;;;;;9.50;3.20;;;4.00;99.90;;;;;;4948100;28;20445;-86
2024/01/27 01:15:48;;;;;;;8.80;3.83;;;4.00;99.90;;;;;;4949549;28;20766;-84
2024/01/27 01:18:14;;;;;;;16.10;5.27;;;4.00;99.90;;;;;;4952050;28;20602;-85
2024/01/27 01:20:39;;;;;;;14.67;4.73;;;3.90;99.90;;;;;;4957477;28;20185;-83
2024/01/27 01:23:05;;;;;;;20.53;4.33;;;3.90;99.90;;;;;;4951951;28;20208;-84
2024/01/27 01:25:30;;;;;;;14.67;4.10;;;3.90;99.90;;;;;;4954700;28;20651;-85
2024/01/27 01:27:56;;;;;;;17.80;4.97;;;3.90;99.90;;;;;;4954219;28;20294;-84
2024/01/27 01:30:22;;;;;;;12.60;4.60;;;3.90;99.90;;;;;;4950634;28;20181;-85
2024/01/27 01:32:47;;;;;;;13.30;3.80;;;3.90;1.00;;;;;;4962623;28;20182;-84
2024/01/27 01:35:13;;;;;;;8.97;3.70;;;3.90;1.00;;;;;;4945506;28;20606;-85
2024/01/27 01:37:39;;;;;;;14.80;4.77;;;3.90;1.00;;;;;;4951143;28;20192;-84
2024/01/27 01:40:05;;;;;;;14.82;4.57;;;3.90;1.00;;;;;;4950970;28;20293;-85
2024/01/27 01:42:32;;;;;;;14.93;4.22;;;3.90;1.00;;;;;;4949989;28;20304;-85
2024/01/27 01:44:57;;;;;;;9.43;3.30;;;3.90;1.00;;;;;;4946498;28;20193;-84
2024/01/27 01:47:23;;;;;;;13.90;4.40;;;3.90;1.00;;;;;;4952417;28;20382;-81
2024/01/27 01:49:49;;;;;;;15.80;5.33;;;3.90;1.00;;;;;;4948271;28;20252;-84
2024/01/27 01:52:19;;;;;;;15.90;5.13;;;3.90;1.00;;;;;;4952562;28;20201;-85
2024/01/27 01:54:52;;;;;;;14.90;4.63;;;3.90;1.00;;;;;;4944694;29;20718;-84
2024/01/27 01:57:18;;;;;;;12.07;4.95;;;3.90;1.00;;;;;;4948132;28;20220;-85
2024/01/27 01:59:43;;;;;;;21.17;4.70;;;3.90;1.00;;;;;;4944465;29;20228;-83
2024/01/27 02:02:09;;;;;;;9.17;4.20;;;3.80;1.00;;;;;;4947487;28;20268;-83
2024/01/27 02:04:48;;;;;;;8.27;3.73;;;3.80;1.00;;;;;;4953078;28;20189;-83
2024/01/27 02:07:14;;;;;;;17.67;4.85;;;3.80;1.00;;;;;;4952723;28;20675;-82
2024/01/27 02:09:39;;;;;;;11.23;4.23;;;3.80;1.00;;;;;;4949924;28;20210;-83
2024/01/27 02:12:05;;;;;;;16.53;5.00;;;3.80;1.00;;;;;;4953847;28;20573;-83
2024/01/27 02:14:31;;;;;;;11.82;4.97;;;3.80;1.00;;;;;;4946671;28;20205;-85
2024/01/27 02:16:57;;;;;;;18.20;5.50;;;3.70;4.10;;;;;;4949370;28;20724;-85
2024/01/27 02:19:23;;;;;;;16.00;5.95;;;3.80;25.30;;;;;;4948011;28;20233;-85
2024/01/27 02:21:49;;;;;;;16.73;4.63;;;3.70;9.90;;;;;;4949023;28;20196;-84
2024/01/27 02:24:14;;;;;;;13.50;4.50;;;3.70;1.00;;;;;;4946701;28;20186;-83
2024/01/27 02:26:40;;;;;;;10.90;4.57;;;3.70;1.00;;;;;;4949624;28;20177;-83
2024/01/27 02:29:05;;;;;;;18.23;4.10;;;3.70;1.00;;;;;;4952795;28;20247;-84
2024/01/27 02:31:31;;;;;;;12.17;3.63;;;3.70;1.00;;;;;;4954418;28;20221;-84
2024/01/27 02:33:57;;;;;;;11.43;4.57;;;3.60;1.00;;;;;;4963628;28;20189;-84
2024/01/27 02:36:22;;;;;;;21.07;4.07;;;3.60;22.70;;;;;;4948645;28;20452;-84
2024/01/27 02:38:48;;;;;;;12.83;4.07;;;3.60;99.90;;;;;;4950706;28;20218;-85
2024/01/27 02:41:14;;;;;;;16.43;4.17;;;3.60;64.30;;;;;;4951726;28;20197;-83
2024/01/27 02:43:40;;;;;;;12.82;4.35;;;3.60;2.50;;;;;;4950159;28;20205;-84
2024/01/27 02:46:11;;;;;;;12.50;4.45;;;3.60;28.50;;;;;;4949915;28;20189;-85
2024/01/27 02:48:39;;;;;;;12.60;3.65;;;3.60;99.90;;;;;;4953520;28;20700;-83
2024/01/27 02:51:05;;;;;;;13.70;3.95;;;3.60;99.90;;;;;;4951354;28;20217;-86
2024/01/27 02:53:30;;;;;;;12.27;3.67;;;3.60;99.90;;;;;;4952014;28;20197;-84
2024/01/27 02:55:56;;;;;;;15.57;4.60;;;3.60;99.90;;;;;;4954141;28;20547;-84
2024/01/27 02:58:22;;;;;;;21.00;4.90;;;3.60;99.90;;;;;;4949324;28;20221;-82
2024/01/27 03:00:47;;;;;;;14.77;4.33;;;3.60;99.90;;;;;;4953868;28;20190;-83
2024/01/27 03:03:13;;;;;;;15.73;4.60;;;3.60;99.90;;;;;;4953001;28;20469;-85
2024/01/27 03:05:39;;;;;;;11.57;4.40;;;3.60;99.90;;;;;;4953427;28;20184;-85
2024/01/27 03:08:05;;;;;;;9.60;3.30;;;3.60;99.90;;;;;;4950155;28;20731;-86
2024/01/27 03:10:31;;;;;;;12.95;4.10;;;3.60;99.90;;;;;;4951032;28;20273;-85
2024/01/27 03:12:56;;;;;;;9.57;3.93;;;3.60;99.90;;;;;;4952101;28;20257;-86
2024/01/27 03:15:22;;;;;;;10.03;4.27;;;3.60;99.90;;;;;;4951410;28;20189;-86
2024/01/27 03:17:47;;;;;;;23.80;5.37;;;3.60;47.50;;;;;;4952585;28;20661;-84
2024/01/27 03:20:13;;;;;;;10.80;4.00;;;3.50;1.00;;;;;;4951767;28;20197;-84
2024/01/27 03:22:40;;;;;;;10.70;4.60;;;3.50;1.00;;;;;;4953719;28;20313;-85
2024/01/27 03:25:06;;;;;;;17.73;5.63;;;3.50;1.00;;;;;;4955135;28;20191;-84
2024/01/27 03:27:32;;;;;;;14.82;4.03;;;3.50;1.00;;;;;;4954485;28;20171;-83
2024/01/27 03:30:04;;;;;;;8.73;3.83;;;3.40;59.40;;;;;;4956755;28;20192;-83
2024/01/27 03:32:35;;;;;;;12.30;4.20;;;3.50;99.90;;;;;;4953875;29;20826;-85
2024/01/27 03:35:19;;;;;;;21.25;4.38;;;3.50;30.90;;;;;;4952325;28;20276;-84
2024/01/27 03:37:57;;;;;;;17.13;4.93;;;3.40;76.00;;;;;;4954476;28;20197;-85
2024/01/27 03:40:40;;;;;;;19.77;4.22;;;3.40;35.10;;;;;;4953900;28;20225;-85
2024/01/27 03:43:16;;;;;;;15.82;5.10;;;3.40;1.20;;;;;;4950634;28;20224;-84
2024/01/27 03:46:03;;;;;;;8.98;3.67;;;3.40;11.60;;;;;;4956843;28;21072;-83
2024/01/27 03:48:37;;;;;;;15.98;4.18;;;3.40;21.80;;;;;;4971032;28;20217;-85
2024/01/27 03:51:12;;;;;;;11.05;3.72;;;3.40;1.00;;;;;;4954933;28;20391;-85
2024/01/27 03:53:43;;;;;;;7.75;3.55;;;3.40;1.00;;;;;;4954966;28;20199;-86
2024/01/27 03:56:17;;;;;;;14.02;3.95;;;3.40;1.00;;;;;;4958297;28;20905;-82
2024/01/27 03:58:55;;;;;;;12.20;4.32;;;3.30;1.00;;;;;;4974666;28;20240;-86
2024/01/27 04:01:33;;;;;;;14.80;4.53;;;3.30;1.00;;;;;;4957097;28;20197;-84
2024/01/27 04:06:53;;;;;;;14.85;4.60;;;3.30;1.00;;;;;;4960796;28;20198;-85
2024/01/27 04:09:26;;;;;;;15.77;4.80;;;3.30;1.00;;;;;;4972728;28;20218;-85
2024/01/27 04:11:57;;;;;;;13.82;3.60;;;3.30;1.00;;;;;;4969536;28;20181;-84
2024/01/27 04:14:31;;;;;;;9.15;3.50;;;3.30;1.00;;;;;;4951353;28;20186;-84
2024/01/27 04:17:08;;;;;;;17.88;5.80;;;3.30;1.00;;;;;;4953025;28;20193;-85
2024/01/27 04:19:51;;;;;;;11.88;4.15;;;3.30;1.00;;;;;;4963699;28;20692;-84
2024/01/27 04:22:19;;;;;;;12.18;3.83;;;3.30;1.00;;;;;;4967714;28;20281;-84
2024/01/27 04:24:59;;;;;;;16.55;4.43;;;3.30;1.00;;;;;;4957226;28;20205;-84
2024/01/27 04:27:35;;;;;;;13.95;4.15;;;3.30;1.00;;;;;;4965412;28;20185;-83
2024/01/27 04:32:59;;;;;;;19.95;4.82;;;3.30;23.80;;;;;;4951664;28;20249;-84
2024/01/27 04:35:58;;;;;;;14.63;3.90;;;3.30;1.00;;;;;;4967116;28;20554;-84
2024/01/27 04:38:29;;;;;;;23.98;4.25;;;3.30;1.00;;;;;;4951046;28;20272;-84
2024/01/27 04:41:04;;;;;;;20.83;5.60;;;3.20;1.00;;;;;;4947998;28;20212;-82
2024/01/27 04:43:41;;;;;;;27.10;4.70;;;3.20;1.00;;;;;;4947050;28;20746;-83
2024/01/27 04:46:28;;;;;;;11.88;4.68;;;3.20;1.00;;;;;;4950141;28;20189;-84
2024/01/27 04:49:11;;;;;;;14.80;4.15;;;3.20;1.00;;;;;;4951247;28;20209;-84
2024/01/27 04:51:54;;;;;;;9.27;4.28;;;3.10;1.00;;;;;;4953824;28;20247;-83
2024/01/27 04:54:20;;;;;;;16.65;5.32;;;3.10;1.00;;;;;;4951788;28;20276;-83
2024/01/27 04:56:52;;;;;;;10.40;4.60;;;3.10;1.00;;;;;;4948468;28;20210;-85
2024/01/27 04:59:36;;;;;;;10.90;4.45;;;3.10;1.00;;;;;;4953133;28;20457;-84
2024/01/27 05:02:04;;;;;;;12.70;4.40;;;3.10;1.00;;;;;;4951505;28;20201;-84
2024/01/27 05:04:33;;;;;;;18.05;5.10;;;3.10;1.00;;;;;;4953493;28;20261;-81
2024/01/27 05:07:07;;;;;;;18.88;5.57;;;3.10;1.00;;;;;;4949773;28;20270;-83
2024/01/27 05:09:42;;;;;;;18.55;6.30;;;3.10;1.00;;;;;;4948114;28;20212;-82
2024/01/27 05:12:53;;;;;;;8.23;3.72;;;3.10;1.00;;;;;;4952553;28;20185;-83
2024/01/27 05:15:23;;;;;;;14.75;4.30;;;3.10;1.00;;;;;;4951110;28;20193;-84
2024/01/27 05:20:25;;;;;;;15.77;4.22;;;3.10;1.00;;;;;;4968896;28;20232;-84
2024/01/27 05:22:53;;;;;;;15.85;4.75;;;3.10;1.00;;;;;;4968203;28;20207;-83
2024/01/27 05:25:26;;;;;;;21.70;5.15;;;3.10;1.00;;;;;;4972084;28;20244;-83
2024/01/27 05:28:08;;;;;;;13.48;5.03;;;3.10;1.00;;;;;;4970233;28;20308;-84
2024/01/27 05:30:58;;;;;;;9.05;3.70;;;3.10;1.00;;;;;;4972814;28;20253;-84
2024/01/27 05:33:44;;;;;;;;;;;;;;;;;;;;;
2024/01/27 05:36:36;;;;;;;15.05;5.07;;;3.20;1.00;;;;;;4968002;28;20191;-84
2024/01/27 05:39:08;;;;;;;15.93;5.38;;;3.20;1.00;;;;;;4984145;28;20216;-85
2024/01/27 05:41:45;;;;;;;12.25;5.28;;;3.20;1.00;;;;;;4973505;28;20203;-84
2024/01/27 05:44:27;;;;;;;21.15;5.20;;;3.10;1.00;;;;;;4980486;28;20196;-84
2024/01/27 05:47:07;;;;;;;20.23;7.50;;;3.10;1.00;;;;;;4970054;28;20199;-84
2024/01/27 05:50:04;;;;;;;15.45;4.97;;;3.10;1.00;;;;;;4988771;28;20201;-85
2024/01/27 05:52:33;;;;;;;17.17;4.97;;;3.00;1.00;;;;;;4970816;28;20299;-84
2024/01/27 05:55:12;;;;;;;13.20;4.47;;;3.00;1.00;;;;;;4973003;28;20197;-84
2024/01/27 05:57:58;;;;;;;12.57;4.35;;;2.90;1.00;;;;;;4969783;28;20244;-84
2024/01/27 06:00:28;;;;;;;21.25;4.97;;;2.90;1.00;;;;;;4970097;28;20251;-84
2024/01/27 06:03:02;;;;;;;14.05;4.95;;;2.80;1.00;;;;;;4969847;28;20228;-83
2024/01/27 06:05:30;;;;;;;13.25;3.53;;;2.80;1.00;;;;;;4972587;28;20180;-82
2024/01/27 06:08:04;;;;;;;12.15;5.32;;;2.80;1.00;;;;;;4967047;28;20866;-85
2024/01/27 06:10:40;;;;;;;19.95;4.93;;;2.70;1.00;;;;;;4979722;28;20180;-83
2024/01/27 06:13:22;;;;;;;12.07;4.07;;;2.70;11.90;;;;;;4987999;28;20259;-82
2024/01/27 06:16:02;;;;;;;11.52;4.25;;;2.60;31.60;;;;;;4968139;28;20220;-83
2024/01/27 06:21:34;;;;;;;12.10;4.72;;;2.60;99.90;;;;;;4976250;28;20212;-85
2024/01/27 06:24:15;;;;;;;20.75;5.60;;;2.60;99.90;;;;;;4970312;28;20251;-84
2024/01/27 06:26:42;;;;;;;15.30;4.63;;;2.60;99.90;;;;;;4971340;28;20193;-83
2024/01/27 06:29:18;;;;;;;16.20;4.28;;;2.60;99.90;;;;;;4968490;28;20249;-83
2024/01/27 06:31:54;;;;;;;11.90;4.53;;;2.60;99.90;;;;;;4972807;28;20188;-84
2024/01/27 06:34:29;;;;;;;20.33;4.25;;;2.60;99.90;;;;;;4972378;28;20184;-84
2024/01/27 06:36:58;;;;;;;11.90;4.13;;;2.60;99.90;;;;;;4983081;28;20199;-84
2024/01/27 06:39:35;;;;;;;13.60;4.85;;;2.60;99.90;;;;;;4970137;28;20209;-83
2024/01/27 06:42:08;;;;;;;15.07;3.85;;;2.60;99.90;;;;;;4973546;28;20176;-84
2024/01/27 06:44:50;;;;;;;11.35;4.47;;;2.50;99.90;;;;;;4973061;28;20172;-84
2024/01/27 06:47:22;;;;;;;16.83;5.18;;;2.50;99.90;;;;;;4988819;28;20208;-86
2024/01/27 06:50:13;;;;;;;17.73;4.38;;;2.50;99.90;;;;;;4974183;28;20204;-82
2024/01/27 06:52:59;;;;;;;10.55;4.47;;;2.50;99.90;;;;;;4984846;28;20196;-84
2024/01/27 06:55:31;;;;;;;14.00;6.80;;;2.50;99.90;;;;;;4972483;28;20189;-84
2024/01/27 06:58:25;;;;;;;15.20;4.10;;;2.50;99.90;;;;;;4966988;28;20223;-84
2024/01/27 07:01:24;;;;;;;10.70;3.90;;;2.50;99.90;;;;;;4974404;28;20195;-86
2024/01/27 07:04:13;;;;;;;13.75;4.82;;;2.50;99.90;;;;;;4989456;28;20212;-83
2024/01/27 07:06:40;;;;;;;12.07;4.22;;;2.50;99.90;;;;;;4973726;28;20698;-83
2024/01/27 07:09:20;;;;;;;14.05;4.57;;;2.50;99.90;;;;;;4988338;28;20211;-87
2024/01/27 07:11:46;;;;;;;9.60;4.07;;;2.60;99.90;;;;;;4967562;28;20212;-83
2024/01/27 07:14:17;;;;;;;15.77;4.80;;;2.60;99.90;;;;;;4972964;28;20189;-85
2024/01/27 07:16:42;;;;;;;9.10;4.63;;;2.60;99.90;;;;;;4964803;28;20290;-82
2024/01/27 07:19:08;;;;;;;18.67;4.10;;;2.60;99.90;;;;;;4973471;28;20302;-81
2024/01/27 07:21:33;;;;;;;19.10;4.80;;;2.70;99.90;;;;;;4990890;28;20200;-82
2024/01/27 07:23:59;;;;;;;13.97;4.40;;;2.90;99.90;;;;;;4975080;28;20596;-80
2024/01/27 07:26:25;;;;;;;12.73;3.80;;;2.90;99.90;;;;;;4973303;28;20203;-82
2024/01/27 07:28:50;;;;;;;9.07;4.07;;;3.00;99.90;;;;;;4970587;28;20678;-83
2024/01/27 07:31:17;;;;;;;11.27;4.00;;;3.10;99.90;;;;;;4975270;28;20197;-81
2024/01/27 07:33:42;;;;;;;14.38;3.20;;;3.20;99.90;;;;;;4969694;28;20185;-82
2024/01/27 07:36:08;;;;;;;17.73;5.00;;;3.30;82.30;;;;;;4975668;28;20204;-84
2024/01/27 07:38:33;;;;;;;11.93;3.90;;;3.30;1.00;;;;;;4970278;28;20208;-80
2024/01/27 07:40:59;;;;;;;9.47;4.13;;;3.40;1.00;;;;;;4971454;28;20262;-84
2024/01/27 07:43:25;;;;;;;14.30;4.00;;;3.50;1.00;;;;;;4964073;28;20648;-82
2024/01/27 07:45:52;;;;;;;20.95;4.75;;;3.50;1.00;;;;;;4966733;28;20248;-81
2024/01/27 07:48:18;;;;;;;15.68;4.13;;;3.60;99.90;;;;;;4972785;28;20200;-80
2024/01/27 07:50:48;;;;;;;13.63;4.87;;;3.70;99.90;;;;;;4975510;28;20187;-80
2024/01/27 07:53:14;;;;;;;9.63;3.70;;;3.80;99.90;;;;;;4970060;28;20196;-82
2024/01/27 07:55:39;;;;;;;9.60;4.33;;;3.90;46.80;;;;;;4972790;28;20404;-83
2024/01/27 07:58:05;;;;;;;13.20;4.40;;;4.30;1.00;;;;;;4978411;28;20467;-83
2024/01/27 08:00:32;;;;;;;7.78;4.88;;;5.40;1.00;;;;;;4975153;28;20196;-83
2024/01/27 08:02:58;;;;;;;12.20;4.57;;;6.80;99.90;;;;;;4972886;28;20209;-84
2024/01/27 08:05:23;;;;;;;15.00;4.37;;;7.80;1.00;;;;;;4971761;28;20448;-82
2024/01/27 08:07:49;;;;;;;11.43;3.83;;;8.50;99.90;;;;;;4971550;28;20180;-81
2024/01/27 08:10:15;;;;;;;17.90;4.17;;;9.70;1.00;;;;;;4972059;28;20185;-82
2024/01/27 08:12:40;;;;;;;11.10;4.10;;;10.90;1.00;;;;;;4971032;28;21115;-83
2024/01/27 08:15:07;;;;;;;18.50;4.37;;;12.10;1.00;;;;;;4973469;28;20238;-82
2024/01/27 08:17:32;;;;;;;11.80;4.07;;;13.10;99.90;;;;;;4972812;28;20716;-82
2024/01/27 08:19:59;;;;;;;16.00;4.13;;;14.00;99.90;;;;;;4972067;28;20456;-79
2024/01/27 08:22:25;;;;;;;14.77;4.70;;;14.80;99.90;;;;;;4967429;28;20208;-81
2024/01/27 08:24:50;;;;;;;12.07;4.97;;;14.60;99.90;;;;;;4974033;28;20536;-82
2024/01/27 08:27:16;;;;;;;9.87;4.83;;;14.40;99.90;;;;;;4970525;28;20212;-80
2024/01/27 08:29:41;;;;;;;10.73;5.00;;;14.80;99.90;;;;;;4970324;28;20196;-81
2024/01/27 08:32:07;;;;;;;10.70;3.83;;;14.80;99.90;;;;;;4969162;28;20639;-82
2024/01/27 08:34:32;;;;;;;11.77;4.60;;;14.30;99.90;;;;;;4973152;28;20180;-82
2024/01/27 08:37:00;;;;;;;11.40;3.80;;;13.60;99.90;;;;;;4966130;28;20268;-82
2024/01/27 08:39:25;;;;;;;12.87;4.30;;;13.80;99.90;;;;;;4970276;28;20208;-82
2024/01/27 08:41:51;;;;;;;10.00;4.80;;;14.20;99.90;;;;;;4972099;28;20523;-81
2024/01/27 08:44:17;;;;;;;10.73;5.33;;;15.00;99.90;;;;;;4970367;28;20654;-82
2024/01/27 08:46:43;;;;;;;13.80;5.80;;;16.30;99.90;;;;;;4969805;28;20177;-81
2024/01/27 08:49:08;;;;;;;14.30;4.50;;;17.70;99.90;;;;;;4968411;28;20526;-83
2024/01/27 08:51:34;;;;;;;10.47;4.10;;;18.80;99.90;;;;;;4983435;28;20229;-84
2024/01/27 08:53:59;;;;;;;12.40;4.40;;;19.70;99.90;;;;;;4970671;28;20239;-83
2024/01/27 08:56:25;;;;;;;13.03;4.40;;;20.50;99.90;;;;;;4971883;28;21028;-84
2024/01/27 08:58:52;;;;;;;10.27;4.07;;;21.20;99.90;;;;;;4970913;28;20200;-84
2024/01/27 09:01:18;;;;;;;12.03;4.57;;;21.80;99.90;;;;;;4971152;28;20620;-82
2024/01/27 09:03:43;;;;;;;10.57;4.23;;;22.20;99.90;;;;;;4974723;28;20531;-83
2024/01/27 09:06:09;;;;;;;12.37;4.20;;;22.40;99.90;;;;;;4966731;28;20212;-83
2024/01/27 09:08:34;;;;;;;7.80;4.10;;;22.80;99.90;;;;;;4965127;28;20575;-86
2024/01/27 09:11:04;;;;;;;9.93;3.80;;;23.20;99.90;;;;;;4959599;28;20401;-81
2024/01/27 09:13:29;;;;;;;9.13;3.53;;;23.50;99.90;;;;;;4967854;28;20194;-84
2024/01/27 09:15:57;;;;;;;9.60;4.10;;;24.00;99.90;;;;;;4973742;28;21154;-84
2024/01/27 09:18:23;;;;;;;12.83;4.43;;;24.20;99.90;;;;;;4964132;28;20221;-84
2024/01/27 09:20:48;;;;;;;8.77;3.90;;;24.70;99.90;;;;;;4975792;28;20957;-84
2024/01/27 09:23:14;;;;;;;8.90;3.80;;;25.40;99.90;;;;;;4979374;28;20251;-84
2024/01/27 09:25:39;;;;;;;11.77;4.30;;;25.80;99.90;;;;;;4971072;28;20184;-83
2024/01/27 09:28:05;;;;;;;7.47;3.37;;;26.30;99.90;;;;;;4972953;28;20217;-85
2024/01/27 09:30:31;;;;;;;10.80;3.83;;;26.70;99.90;;;;;;4969993;28;20198;-84
2024/01/27 09:32:56;;;;;;;9.67;4.27;;;26.90;99.90;;;;;;4969224;28;20209;-83
2024/01/27 09:35:22;;;;;;;5.97;3.60;;;27.00;99.90;;;;;;4976187;28;20246;-83
2024/01/27 09:37:47;;;;;;;7.37;3.23;;;27.10;99.90;;;;;;4978276;28;20194;-83
2024/01/27 09:40:13;;;;;;;7.77;3.47;;;26.80;99.90;;;;;;4978912;28;20662;-82
2024/01/27 09:42:41;;;;;;;13.27;3.80;;;26.50;99.90;;;;;;4973400;28;20278;-83
2024/01/27 09:45:09;;;;;;;9.23;4.27;;;25.70;99.90;;;;;;4967437;28;20624;-84
2024/01/27 09:47:36;;;;;;;9.70;3.47;;;24.30;99.90;;;;;;4974806;28;21183;-82
2024/01/27 09:50:02;;;;;;;12.40;3.70;;;22.30;99.90;;;;;;4968824;28;20518;-83
2024/01/27 09:52:27;;;;;;;10.83;3.50;;;20.50;99.90;;;;;;4973301;28;20472;-82
2024/01/27 09:54:53;;;;;;;8.97;3.50;;;19.00;99.90;;;;;;4970574;28;20241;-81
2024/01/27 09:57:20;;;;;;;15.10;4.23;;;17.80;99.90;;;;;;4985844;28;20223;-80
2024/01/27 09:59:47;;;;;;;10.90;3.93;;;16.60;99.90;;;;;;4973685;28;20209;-82
2024/01/27 10:02:15;;;;;;;10.47;4.07;;;15.70;99.90;;;;;;4976858;28;20436;-82
2024/01/27 10:04:45;;;;;;;8.80;3.63;;;14.70;99.90;;;;;;4973405;28;20429;-82
2024/01/27 10:07:10;;;;;;;11.43;3.90;;;14.20;99.90;;;;;;4985835;28;20495;-83
2024/01/27 10:09:36;;;;;;;15.30;4.03;;;14.00;99.90;;;;;;4974638;28;20463;-82
2024/01/27 10:12:03;;;;;;;12.17;3.53;;;13.90;99.90;;;;;;4971524;28;20611;-82
2024/01/27 10:14:39;;;;;;;12.43;4.40;;;13.70;99.90;;;;;;4974133;28;20185;-81
2024/01/27 10:17:05;;;;;;;14.57;3.80;;;13.30;99.90;;;;;;4972606;28;20467;-81
2024/01/27 10:19:30;;;;;;;12.37;3.80;;;13.10;99.90;;;;;;4973147;28;20476;-81
2024/01/27 10:22:02;;;;;;;11.13;4.10;;;12.90;99.90;;;;;;4970627;28;20208;-81
2024/01/27 10:24:27;;;;;;;11.23;3.63;;;12.70;99.90;;;;;;4970626;28;20196;-82
2024/01/27 10:27:01;;;;;;;9.57;4.07;;;12.60;99.90;;;;;;4974573;28;20440;-81
2024/01/27 10:29:27;;;;;;;12.37;5.07;;;12.40;99.90;;;;;;4971655;28;20266;-81
2024/01/27 10:31:53;;;;;;;11.13;3.53;;;12.30;99.90;;;;;;4968982;28;20491;-82
2024/01/27 10:34:22;;;;;;;12.13;3.73;;;12.20;99.90;;;;;;4993736;28;20533;-81
2024/01/27 10:36:47;;;;;;;10.17;3.83;;;12.20;99.90;;;;;;4975615;28;20181;-82
2024/01/27 10:39:17;;;;;;;8.77;3.87;;;12.20;99.90;;;;;;4976284;28;20436;-81
2024/01/27 10:41:45;;;;;;;10.80;3.87;;;12.10;99.90;;;;;;4976888;28;20176;-81
2024/01/27 10:44:14;;;;;;;13.07;3.60;;;12.10;99.90;;;;;;4968927;28;20507;-81
2024/01/27 10:46:44;;;;;;;10.67;3.97;;;12.00;99.90;;;;;;4970425;28;20819;-81
2024/01/27 10:49:13;;;;;;;12.07;4.03;;;11.90;99.90;;;;;;4986897;28;20456;-81
2024/01/27 10:51:43;;;;;;;9.60;3.43;;;11.80;99.90;;;;;;4965800;28;21459;-82
2024/01/27 10:54:13;;;;;;;12.23;4.60;;;11.60;99.90;;;;;;4973263;28;20578;-81
2024/01/27 10:56:42;;;;;;;14.37;4.00;;;11.50;99.90;;;;;;4967834;28;20471;-82
2024/01/27 10:59:09;;;;;;;8.50;3.53;;;11.30;99.90;;;;;;4972581;28;20452;-81
2024/01/27 11:01:37;;;;;;;12.17;3.73;;;11.20;99.90;;;;;;4969275;28;20441;-82
2024/01/27 11:04:06;;;;;;;9.80;2.73;;;11.10;99.90;;;;;;4963771;28;20564;-80
2024/01/27 11:06:34;;;;;;;9.20;3.13;;;11.00;99.90;;;;;;4959835;28;20463;-81
2024/01/27 11:09:03;;;;;;;12.60;2.93;;;10.80;99.90;;;;;;4969694;28;20492;-80
2024/01/27 11:11:29;;;;;;;7.97;2.63;;;10.80;99.90;;;;;;4954866;28;20461;-81
2024/01/27 11:13:55;;;;;;;9.60;3.50;;;10.70;99.90;;;;;;4955930;28;20500;-81
2024/01/27 11:16:20;;;;;;;9.87;3.20;;;10.70;99.90;;;;;;4955606;28;20452;-80
2024/01/27 11:18:48;;;;;;;13.33;3.30;;;10.70;99.90;;;;;;4955873;28;20232;-81
2024/01/27 11:21:15;;;;;;;11.00;4.23;;;10.80;99.90;;;;;;4963556;28;20227;-82
2024/01/27 11:23:41;;;;;;;11.33;2.87;;;11.30;99.90;;;;;;4972594;28;20429;-81
2024/01/27 11:26:09;;;;;;;7.47;2.70;;;12.50;99.90;;;;;;4955407;28;20933;-81
2024/01/27 11:28:36;;;;;;;18.13;4.60;;;14.10;99.90;;;;;;4956001;28;20588;-82
2024/01/27 11:31:09;;;;;;;6.80;2.60;;;15.50;99.90;;;;;;4954969;28;20846;-82
2024/01/27 11:33:45;;;;;;;7.43;2.90;;;16.90;99.90;;;;;;4955691;28;20500;-82
2024/01/27 11:36:20;;;;;;;9.23;3.30;;;18.00;99.90;;;;;;4971423;28;20447;-81
2024/01/27 11:38:46;;;;;;;10.60;2.97;;;18.90;99.90;;;;;;4973303;28;20530;-81
2024/01/27 11:41:12;;;;;;;9.30;2.93;;;19.30;99.90;;;;;;4973197;28;20439;-81
2024/01/27 11:43:37;;;;;;;7.60;3.13;;;19.70;99.90;;;;;;4966170;28;20567;-81
2024/01/27 11:46:03;;;;;;;8.77;2.40;;;20.30;99.90;;;;;;4972600;28;20188;-81
2024/01/27 11:48:29;;;;;;;10.53;3.27;;;20.40;99.90;;;;;;4974856;28;20641;-81
2024/01/27 11:51:15;;;;;;;9.03;2.97;;;20.80;99.90;;;;;;4971039;28;20288;-82
2024/01/27 11:53:41;;;;;;;8.27;2.77;;;21.20;99.90;;;;;;4977115;28;20472;-81
2024/01/27 11:56:07;;;;;;;6.30;2.50;;;21.20;99.90;;;;;;4975011;28;20515;-82
2024/01/27 11:58:33;;;;;;;11.30;3.10;;;21.10;99.90;;;;;;4964283;28;20212;-82
2024/01/27 12:00:58;;;;;;;10.00;3.00;;;21.30;99.90;;;;;;4957521;28;20421;-82
2024/01/27 12:03:25;;;;;;;9.63;2.80;;;21.20;99.90;;;;;;4964847;28;20463;-82
2024/01/27 12:05:50;;;;;;;8.20;2.97;;;21.60;99.90;;;;;;4973844;28;20195;-82
2024/01/27 12:08:17;;;;;;;10.53;2.93;;;21.50;99.90;;;;;;4971836;28;20440;-82
2024/01/27 12:10:42;;;;;;;10.43;2.80;;;21.50;99.90;;;;;;4957278;28;20557;-82
2024/01/27 12:13:08;;;;;;;8.00;2.80;;;21.40;99.90;;;;;;4957112;28;20456;-81
2024/01/27 12:15:34;;;;;;;7.30;2.37;;;21.30;99.90;;;;;;4956864;28;20190;-81
2024/01/27 12:17:59;;;;;;;12.70;3.20;;;21.40;99.90;;;;;;4968589;28;20212;-81
2024/01/27 12:20:25;;;;;;;8.20;2.17;;;21.20;99.90;;;;;;4967091;28;20263;-82
2024/01/27 12:23:02;;;;;;;6.40;2.33;;;21.00;99.90;;;;;;4960680;28;20201;-81
2024/01/27 12:25:28;;;;;;;5.43;2.10;;;21.00;99.90;;;;;;4978191;28;20443;-82
2024/01/27 12:27:54;;;;;;;9.13;2.67;;;20.90;99.90;;;;;;4977234;28;20823;-81
2024/01/27 12:30:21;;;;;;;5.50;1.97;;;20.90;99.90;;;;;;4973194;28;20267;-82
2024/01/27 12:32:47;;;;;;;11.73;3.30;;;20.70;99.90;;;;;;4966113;28;20201;-81
2024/01/27 12:35:13;;;;;;;7.50;2.40;;;20.60;99.90;;;;;;4957765;28;20448;-81
2024/01/27 12:37:39;;;;;;;14.00;3.10;;;20.40;99.90;;;;;;4964870;28;20887;-82
2024/01/27 12:40:18;;;;;;;7.40;2.67;;;20.30;99.90;;;;;;4965630;28;20177;-82
2024/01/27 12:42:44;;;;;;;9.83;3.47;;;20.50;99.90;;;;;;4976953;28;20184;-82
2024/01/27 12:45:09;;;;;;;8.43;3.40;;;20.50;99.90;;;;;;4975720;28;20444;-82
2024/01/27 12:47:35;;;;;;;7.23;2.50;;;20.60;99.90;;;;;;4963750;28;20248;-82
2024/01/27 12:50:00;;;;;;;11.20;2.73;;;20.90;99.90;;;;;;4973100;28;20193;-81
2024/01/27 12:52:27;;;;;;;8.60;2.43;;;20.90;99.90;;;;;;4973362;28;20605;-82
2024/01/27 12:54:53;;;;;;;10.63;3.10;;;20.90;99.90;;;;;;4974453;28;20189;-82
2024/01/27 12:57:19;;;;;;;9.47;3.50;;;20.80;99.90;;;;;;4978780;28;20533;-81
2024/01/27 12:59:45;;;;;;;9.37;2.80;;;21.00;99.90;;;;;;4974818;28;20455;-82
2024/01/27 13:02:10;;;;;;;9.40;2.80;;;21.00;99.90;;;;;;4968727;28;21006;-81
2024/01/27 13:04:36;;;;;;;11.10;2.90;;;21.00;99.90;;;;;;4968844;28;20194;-82
2024/01/27 13:07:01;;;;;;;9.33;3.00;;;20.90;99.90;;;;;;4973048;28;20188;-82
2024/01/27 13:09:27;;;;;;;6.93;2.77;;;20.80;99.90;;;;;;4987837;28;20588;-83
2024/01/27 13:11:52;;;;;;;6.63;2.70;;;20.50;99.90;;;;;;4975152;28;20212;-82